sensor_id;sensor_type;location;lat;lon;timestamp;P1;durP1;ratioP1;P2;durP2;ratioP2
1467;SDS011;727;48.892;9.544;2023-08-17T00:00:25;7.23;;;4.03;;
1467;SDS011;727;48.892;9.544;2023-08-17T00:02:54;4.07;;;3.77;;
1467;SDS011;727;48.892;9.544;2023-08-17T00:05:20;4.67;;;4.23;;
1467;SDS011;727;48.892;9.544;2023-08-17T00:07:47;6.10;;;3.57;;
1467;SDS011;727;48.892;9.544;2023-08-17T00:10:14;7.13;;;4.30;;
1467;SDS011;727;48.892;9.544;2023-08-17T00:12:41;4.40;;;4.00;;
1467;SDS011;727;48.892;9.544;2023-08-17T00:15:08;4.00;;;3.60;;
1467;SDS011;727;48.892;9.544;2023-08-17T00:17:35;8.27;;;4.63;;
1467;SDS011;727;48.892;9.544;2023-08-17T00:20:03;5.60;;;3.83;;
1467;SDS011;727;48.892;9.544;2023-08-17T00:22:31;4.63;;;4.17;;
1467;SDS011;727;48.892;9.544;2023-08-17T00:24:58;6.90;;;5.03;;
1467;SDS011;727;48.892;9.544;2023-08-17T00:27:25;6.93;;;5.20;;
1467;SDS011;727;48.892;9.544;2023-08-17T00:29:51;7.13;;;4.40;;
1467;SDS011;727;48.892;9.544;2023-08-17T00:32:18;4.23;;;3.90;;
1467;SDS011;727;48.892;9.544;2023-08-17T00:34:45;6.10;;;4.00;;
1467;SDS011;727;48.892;9.544;2023-08-17T00:37:13;5.20;;;4.50;;
1467;SDS011;727;48.892;9.544;2023-08-17T00:39:40;4.90;;;4.10;;
1467;SDS011;727;48.892;9.544;2023-08-17T00:42:06;4.37;;;3.97;;
1467;SDS011;727;48.892;9.544;2023-08-17T00:44:33;6.27;;;3.70;;
1467;SDS011;727;48.892;9.544;2023-08-17T00:47:00;4.17;;;3.87;;
1467;SDS011;727;48.892;9.544;2023-08-17T00:49:27;4.80;;;4.00;;
1467;SDS011;727;48.892;9.544;2023-08-17T00:51:54;8.00;;;5.10;;
1467;SDS011;727;48.892;9.544;2023-08-17T00:54:23;5.50;;;3.67;;
1467;SDS011;727;48.892;9.544;2023-08-17T00:56:52;5.47;;;4.97;;
1467;SDS011;727;48.892;9.544;2023-08-17T00:59:22;5.30;;;4.83;;
1467;SDS011;727;48.892;9.544;2023-08-17T01:01:57;8.73;;;4.70;;
1467;SDS011;727;48.892;9.544;2023-08-17T01:04:23;9.27;;;4.47;;
1467;SDS011;727;48.892;9.544;2023-08-17T01:06:50;5.10;;;3.80;;
1467;SDS011;727;48.892;9.544;2023-08-17T01:09:17;8.33;;;5.03;;
1467;SDS011;727;48.892;9.544;2023-08-17T01:14:54;11.83;;;5.30;;
1467;SDS011;727;48.892;9.544;2023-08-17T01:17:28;7.20;;;3.97;;
1467;SDS011;727;48.892;9.544;2023-08-17T01:19:59;9.83;;;4.37;;
1467;SDS011;727;48.892;9.544;2023-08-17T01:22:29;5.60;;;4.50;;
1467;SDS011;727;48.892;9.544;2023-08-17T01:25:00;6.10;;;4.43;;
1467;SDS011;727;48.892;9.544;2023-08-17T01:27:39;5.13;;;4.63;;
1467;SDS011;727;48.892;9.544;2023-08-17T01:30:07;6.23;;;4.20;;
1467;SDS011;727;48.892;9.544;2023-08-17T01:32:36;5.93;;;4.30;;
1467;SDS011;727;48.892;9.544;2023-08-17T01:35:09;7.63;;;6.00;;
1467;SDS011;727;48.892;9.544;2023-08-17T01:37:40;5.33;;;4.83;;
1467;SDS011;727;48.892;9.544;2023-08-17T01:40:10;7.83;;;4.03;;
1467;SDS011;727;48.892;9.544;2023-08-17T01:42:39;7.30;;;5.23;;
1467;SDS011;727;48.892;9.544;2023-08-17T01:45:08;6.43;;;4.80;;
1467;SDS011;727;48.892;9.544;2023-08-17T01:47:35;10.40;;;4.80;;
1467;SDS011;727;48.892;9.544;2023-08-17T01:50:02;9.13;;;5.00;;
1467;SDS011;727;48.892;9.544;2023-08-17T01:52:29;4.83;;;3.80;;
1467;SDS011;727;48.892;9.544;2023-08-17T01:54:56;8.30;;;5.37;;
1467;SDS011;727;48.892;9.544;2023-08-17T01:57:25;6.83;;;5.40;;
1467;SDS011;727;48.892;9.544;2023-08-17T01:59:51;5.30;;;4.60;;
1467;SDS011;727;48.892;9.544;2023-08-17T02:02:18;6.93;;;4.70;;
1467;SDS011;727;48.892;9.544;2023-08-17T02:04:46;7.10;;;4.90;;
1467;SDS011;727;48.892;9.544;2023-08-17T02:07:13;5.23;;;4.73;;
1467;SDS011;727;48.892;9.544;2023-08-17T02:09:40;4.43;;;4.07;;
1467;SDS011;727;48.892;9.544;2023-08-17T02:12:06;12.30;;;4.47;;
1467;SDS011;727;48.892;9.544;2023-08-17T02:14:35;6.17;;;4.80;;
1467;SDS011;727;48.892;9.544;2023-08-17T02:17:02;9.70;;;5.20;;
1467;SDS011;727;48.892;9.544;2023-08-17T02:19:30;5.00;;;4.50;;
1467;SDS011;727;48.892;9.544;2023-08-17T02:21:57;6.17;;;5.57;;
1467;SDS011;727;48.892;9.544;2023-08-17T02:24:24;6.63;;;4.47;;
1467;SDS011;727;48.892;9.544;2023-08-17T02:26:51;5.90;;;4.30;;
1467;SDS011;727;48.892;9.544;2023-08-17T02:29:18;5.57;;;4.43;;
1467;SDS011;727;48.892;9.544;2023-08-17T02:31:46;5.57;;;4.40;;
1467;SDS011;727;48.892;9.544;2023-08-17T02:34:12;5.70;;;5.17;;
1467;SDS011;727;48.892;9.544;2023-08-17T02:36:39;6.50;;;5.63;;
1467;SDS011;727;48.892;9.544;2023-08-17T02:39:06;5.00;;;4.50;;
1467;SDS011;727;48.892;9.544;2023-08-17T02:41:33;8.20;;;4.53;;
1467;SDS011;727;48.892;9.544;2023-08-17T02:44:00;11.20;;;4.50;;
1467;SDS011;727;48.892;9.544;2023-08-17T02:46:27;8.37;;;5.93;;
1467;SDS011;727;48.892;9.544;2023-08-17T02:48:55;6.33;;;4.50;;
1467;SDS011;727;48.892;9.544;2023-08-17T02:51:22;6.23;;;4.80;;
1467;SDS011;727;48.892;9.544;2023-08-17T02:53:49;6.77;;;3.93;;
1467;SDS011;727;48.892;9.544;2023-08-17T02:56:15;4.47;;;4.07;;
1467;SDS011;727;48.892;9.544;2023-08-17T02:58:42;8.37;;;4.73;;
1467;SDS011;727;48.892;9.544;2023-08-17T03:01:09;6.83;;;4.97;;
1467;SDS011;727;48.892;9.544;2023-08-17T03:03:36;5.93;;;4.93;;
1467;SDS011;727;48.892;9.544;2023-08-17T03:06:04;5.33;;;4.83;;
1467;SDS011;727;48.892;9.544;2023-08-17T03:08:31;6.20;;;4.17;;
1467;SDS011;727;48.892;9.544;2023-08-17T03:10:58;8.33;;;4.50;;
1467;SDS011;727;48.892;9.544;2023-08-17T03:13:25;5.13;;;4.20;;
1467;SDS011;727;48.892;9.544;2023-08-17T03:15:51;5.67;;;5.10;;
1467;SDS011;727;48.892;9.544;2023-08-17T03:18:18;7.43;;;4.93;;
1467;SDS011;727;48.892;9.544;2023-08-17T03:20:45;6.63;;;4.37;;
1467;SDS011;727;48.892;9.544;2023-08-17T03:23:13;5.37;;;4.87;;
1467;SDS011;727;48.892;9.544;2023-08-17T03:25:40;10.20;;;4.60;;
1467;SDS011;727;48.892;9.544;2023-08-17T03:28:06;8.37;;;5.83;;
1467;SDS011;727;48.892;9.544;2023-08-17T03:30:33;6.20;;;4.70;;
1467;SDS011;727;48.892;9.544;2023-08-17T03:33:00;5.33;;;4.57;;
1467;SDS011;727;48.892;9.544;2023-08-17T03:35:27;5.60;;;5.10;;
1467;SDS011;727;48.892;9.544;2023-08-17T03:37:54;5.80;;;5.30;;
1467;SDS011;727;48.892;9.544;2023-08-17T03:40:22;5.60;;;4.43;;
1467;SDS011;727;48.892;9.544;2023-08-17T03:42:49;7.63;;;4.83;;
1467;SDS011;727;48.892;9.544;2023-08-17T03:45:15;5.60;;;5.10;;
1467;SDS011;727;48.892;9.544;2023-08-17T03:47:42;9.80;;;5.47;;
1467;SDS011;727;48.892;9.544;2023-08-17T03:50:09;8.47;;;4.70;;
1467;SDS011;727;48.892;9.544;2023-08-17T03:52:36;7.97;;;5.00;;
1467;SDS011;727;48.892;9.544;2023-08-17T03:55:03;4.47;;;4.10;;
1467;SDS011;727;48.892;9.544;2023-08-17T03:57:33;7.33;;;4.70;;
1467;SDS011;727;48.892;9.544;2023-08-17T03:59:59;6.23;;;5.30;;
1467;SDS011;727;48.892;9.544;2023-08-17T04:02:26;4.53;;;4.13;;
1467;SDS011;727;48.892;9.544;2023-08-17T04:04:53;8.97;;;5.00;;
1467;SDS011;727;48.892;9.544;2023-08-17T04:07:20;5.17;;;4.20;;
1467;SDS011;727;48.892;9.544;2023-08-17T04:09:48;4.30;;;3.77;;
1467;SDS011;727;48.892;9.544;2023-08-17T04:12:14;9.43;;;5.00;;
1467;SDS011;727;48.892;9.544;2023-08-17T04:14:43;5.30;;;4.80;;
1467;SDS011;727;48.892;9.544;2023-08-17T04:17:10;9.80;;;4.80;;
1467;SDS011;727;48.892;9.544;2023-08-17T04:19:37;5.73;;;5.13;;
1467;SDS011;727;48.892;9.544;2023-08-17T04:22:04;11.30;;;5.37;;
1467;SDS011;727;48.892;9.544;2023-08-17T04:24:31;7.60;;;5.27;;
1467;SDS011;727;48.892;9.544;2023-08-17T04:26:58;5.43;;;4.90;;
1467;SDS011;727;48.892;9.544;2023-08-17T04:29:24;9.83;;;4.90;;
1467;SDS011;727;48.892;9.544;2023-08-17T04:31:53;10.23;;;5.57;;
1467;SDS011;727;48.892;9.544;2023-08-17T04:34:19;8.23;;;4.80;;
1467;SDS011;727;48.892;9.544;2023-08-17T04:36:46;4.57;;;4.23;;
1467;SDS011;727;48.892;9.544;2023-08-17T04:39:13;4.60;;;4.03;;
1467;SDS011;727;48.892;9.544;2023-08-17T04:41:40;5.17;;;4.67;;
1467;SDS011;727;48.892;9.544;2023-08-17T04:44:06;7.40;;;5.20;;
1467;SDS011;727;48.892;9.544;2023-08-17T04:46:34;10.50;;;4.70;;
1467;SDS011;727;48.892;9.544;2023-08-17T04:49:03;7.27;;;4.83;;
1467;SDS011;727;48.892;9.544;2023-08-17T04:51:30;8.27;;;4.00;;
1467;SDS011;727;48.892;9.544;2023-08-17T04:53:56;4.90;;;4.50;;
1467;SDS011;727;48.892;9.544;2023-08-17T04:56:23;4.63;;;3.73;;
1467;SDS011;727;48.892;9.544;2023-08-17T04:58:50;4.40;;;4.10;;
1467;SDS011;727;48.892;9.544;2023-08-17T05:01:17;4.43;;;4.00;;
1467;SDS011;727;48.892;9.544;2023-08-17T05:03:43;6.70;;;3.60;;
1467;SDS011;727;48.892;9.544;2023-08-17T05:06:11;4.70;;;3.80;;
1467;SDS011;727;48.892;9.544;2023-08-17T05:08:39;10.03;;;3.27;;
1467;SDS011;727;48.892;9.544;2023-08-17T05:11:05;9.90;;;7.33;;
1467;SDS011;727;48.892;9.544;2023-08-17T05:13:32;3.40;;;2.93;;
1467;SDS011;727;48.892;9.544;2023-08-17T05:15:59;2.80;;;2.60;;
1467;SDS011;727;48.892;9.544;2023-08-17T05:18:25;3.60;;;3.13;;
1467;SDS011;727;48.892;9.544;2023-08-17T05:20:52;5.40;;;3.37;;
1467;SDS011;727;48.892;9.544;2023-08-17T05:23:21;9.67;;;3.30;;
1467;SDS011;727;48.892;9.544;2023-08-17T05:25:48;5.13;;;3.70;;
1467;SDS011;727;48.892;9.544;2023-08-17T05:28:15;7.10;;;5.63;;
1467;SDS011;727;48.892;9.544;2023-08-17T05:30:41;14.83;;;6.40;;
1467;SDS011;727;48.892;9.544;2023-08-17T05:33:09;9.23;;;7.00;;
1467;SDS011;727;48.892;9.544;2023-08-17T05:35:35;7.33;;;5.30;;
1467;SDS011;727;48.892;9.544;2023-08-17T05:38:02;7.30;;;6.07;;
1467;SDS011;727;48.892;9.544;2023-08-17T05:40:31;6.70;;;5.60;;
1467;SDS011;727;48.892;9.544;2023-08-17T05:42:58;4.70;;;4.30;;
1467;SDS011;727;48.892;9.544;2023-08-17T05:45:25;7.40;;;4.50;;
1467;SDS011;727;48.892;9.544;2023-08-17T05:47:52;6.90;;;5.10;;
1467;SDS011;727;48.892;9.544;2023-08-17T05:50:19;5.83;;;5.20;;
1467;SDS011;727;48.892;9.544;2023-08-17T05:52:45;4.90;;;4.40;;
1467;SDS011;727;48.892;9.544;2023-08-17T05:55:12;5.37;;;4.90;;
1467;SDS011;727;48.892;9.544;2023-08-17T05:57:40;7.13;;;5.77;;
1467;SDS011;727;48.892;9.544;2023-08-17T06:00:07;9.37;;;6.67;;
1467;SDS011;727;48.892;9.544;2023-08-17T06:02:37;7.47;;;5.97;;
1467;SDS011;727;48.892;9.544;2023-08-17T06:05:04;10.00;;;7.03;;
1467;SDS011;727;48.892;9.544;2023-08-17T06:07:31;8.07;;;6.70;;
1467;SDS011;727;48.892;9.544;2023-08-17T06:09:58;9.67;;;6.20;;
1467;SDS011;727;48.892;9.544;2023-08-17T06:12:24;12.03;;;5.97;;
1467;SDS011;727;48.892;9.544;2023-08-17T06:14:52;8.47;;;6.40;;
1467;SDS011;727;48.892;9.544;2023-08-17T06:17:19;11.10;;;9.30;;
1467;SDS011;727;48.892;9.544;2023-08-17T06:19:46;12.30;;;9.90;;
1467;SDS011;727;48.892;9.544;2023-08-17T06:22:13;9.33;;;8.50;;
1467;SDS011;727;48.892;9.544;2023-08-17T06:24:39;10.03;;;8.40;;
1467;SDS011;727;48.892;9.544;2023-08-17T06:27:06;11.97;;;7.93;;
1467;SDS011;727;48.892;9.544;2023-08-17T06:29:33;9.97;;;8.97;;
1467;SDS011;727;48.892;9.544;2023-08-17T06:32:01;9.83;;;8.83;;
1467;SDS011;727;48.892;9.544;2023-08-17T06:34:27;10.50;;;8.50;;
1467;SDS011;727;48.892;9.544;2023-08-17T06:36:57;11.90;;;9.60;;
1467;SDS011;727;48.892;9.544;2023-08-17T06:39:25;11.40;;;9.37;;
1467;SDS011;727;48.892;9.544;2023-08-17T06:44:27;9.07;;;7.63;;
1467;SDS011;727;48.892;9.544;2023-08-17T06:46:56;10.03;;;8.47;;
1467;SDS011;727;48.892;9.544;2023-08-17T06:49:25;10.13;;;9.03;;
1467;SDS011;727;48.892;9.544;2023-08-17T06:51:52;11.80;;;8.07;;
1467;SDS011;727;48.892;9.544;2023-08-17T06:54:19;9.07;;;8.23;;
1467;SDS011;727;48.892;9.544;2023-08-17T06:56:46;9.40;;;8.40;;
1467;SDS011;727;48.892;9.544;2023-08-17T06:59:12;9.20;;;8.37;;
1467;SDS011;727;48.892;9.544;2023-08-17T07:01:39;8.73;;;8.00;;
1467;SDS011;727;48.892;9.544;2023-08-17T07:04:06;8.57;;;7.87;;
1467;SDS011;727;48.892;9.544;2023-08-17T07:06:34;8.60;;;7.80;;
1467;SDS011;727;48.892;9.544;2023-08-17T07:09:01;8.77;;;7.90;;
1467;SDS011;727;48.892;9.544;2023-08-17T07:11:29;9.40;;;8.40;;
1467;SDS011;727;48.892;9.544;2023-08-17T07:13:56;8.53;;;7.40;;
1467;SDS011;727;48.892;9.544;2023-08-17T07:16:23;6.90;;;6.27;;
1467;SDS011;727;48.892;9.544;2023-08-17T07:18:50;7.70;;;6.90;;
1467;SDS011;727;48.892;9.544;2023-08-17T07:21:16;6.07;;;5.57;;
1467;SDS011;727;48.892;9.544;2023-08-17T07:23:45;7.27;;;6.57;;
1467;SDS011;727;48.892;9.544;2023-08-17T07:26:12;6.60;;;6.00;;
1467;SDS011;727;48.892;9.544;2023-08-17T07:28:39;6.40;;;5.80;;
1467;SDS011;727;48.892;9.544;2023-08-17T07:31:06;7.80;;;7.10;;
1467;SDS011;727;48.892;9.544;2023-08-17T07:33:32;7.60;;;6.93;;
1467;SDS011;727;48.892;9.544;2023-08-17T07:35:59;8.70;;;6.17;;
1467;SDS011;727;48.892;9.544;2023-08-17T07:38:26;6.80;;;6.07;;
1467;SDS011;727;48.892;9.544;2023-08-17T07:40:54;6.27;;;5.40;;
1467;SDS011;727;48.892;9.544;2023-08-17T07:43:21;10.57;;;6.63;;
1467;SDS011;727;48.892;9.544;2023-08-17T07:45:52;8.43;;;6.47;;
1467;SDS011;727;48.892;9.544;2023-08-17T07:48:19;7.73;;;7.00;;
1467;SDS011;727;48.892;9.544;2023-08-17T07:50:47;9.40;;;8.50;;
1467;SDS011;727;48.892;9.544;2023-08-17T07:53:15;9.13;;;8.23;;
1467;SDS011;727;48.892;9.544;2023-08-17T07:55:41;9.57;;;8.67;;
1467;SDS011;727;48.892;9.544;2023-08-17T07:58:10;8.13;;;7.43;;
1467;SDS011;727;48.892;9.544;2023-08-17T08:00:36;9.47;;;8.67;;
1467;SDS011;727;48.892;9.544;2023-08-17T08:03:03;9.10;;;8.20;;
1467;SDS011;727;48.892;9.544;2023-08-17T08:05:31;9.07;;;8.17;;
1467;SDS011;727;48.892;9.544;2023-08-17T08:07:57;8.47;;;7.40;;
1467;SDS011;727;48.892;9.544;2023-08-17T08:10:24;9.07;;;8.27;;
1467;SDS011;727;48.892;9.544;2023-08-17T08:12:51;8.13;;;7.43;;
1467;SDS011;727;48.892;9.544;2023-08-17T08:15:19;9.50;;;8.53;;
1467;SDS011;727;48.892;9.544;2023-08-17T08:17:46;8.40;;;7.60;;
1467;SDS011;727;48.892;9.544;2023-08-17T08:20:13;8.30;;;7.50;;
1467;SDS011;727;48.892;9.544;2023-08-17T08:22:39;8.60;;;7.93;;
1467;SDS011;727;48.892;9.544;2023-08-17T08:25:06;9.27;;;8.27;;
1467;SDS011;727;48.892;9.544;2023-08-17T08:27:33;8.80;;;8.00;;
1467;SDS011;727;48.892;9.544;2023-08-17T08:30:00;7.90;;;7.20;;
1467;SDS011;727;48.892;9.544;2023-08-17T08:32:28;9.00;;;7.77;;
1467;SDS011;727;48.892;9.544;2023-08-17T08:34:55;9.30;;;8.40;;
1467;SDS011;727;48.892;9.544;2023-08-17T08:37:22;10.27;;;9.37;;
1467;SDS011;727;48.892;9.544;2023-08-17T08:39:48;8.33;;;7.53;;
1467;SDS011;727;48.892;9.544;2023-08-17T08:42:16;9.93;;;7.87;;
1467;SDS011;727;48.892;9.544;2023-08-17T08:44:43;12.00;;;8.27;;
1467;SDS011;727;48.892;9.544;2023-08-17T08:47:10;8.30;;;7.47;;
1467;SDS011;727;48.892;9.544;2023-08-17T08:49:40;6.60;;;6.10;;
1467;SDS011;727;48.892;9.544;2023-08-17T08:52:08;6.70;;;6.10;;
1467;SDS011;727;48.892;9.544;2023-08-17T08:54:39;6.80;;;6.20;;
1467;SDS011;727;48.892;9.544;2023-08-17T08:57:12;8.30;;;6.47;;
1467;SDS011;727;48.892;9.544;2023-08-17T08:59:39;7.07;;;6.43;;
1467;SDS011;727;48.892;9.544;2023-08-17T09:02:10;6.03;;;5.43;;
1467;SDS011;727;48.892;9.544;2023-08-17T09:04:41;6.07;;;5.63;;
1467;SDS011;727;48.892;9.544;2023-08-17T09:07:09;7.27;;;6.60;;
1467;SDS011;727;48.892;9.544;2023-08-17T09:09:38;5.30;;;4.90;;
1467;SDS011;727;48.892;9.544;2023-08-17T09:12:05;7.53;;;6.40;;
1467;SDS011;727;48.892;9.544;2023-08-17T09:14:34;6.50;;;6.00;;
1467;SDS011;727;48.892;9.544;2023-08-17T09:17:02;6.40;;;5.70;;
1467;SDS011;727;48.892;9.544;2023-08-17T09:19:31;6.40;;;5.90;;
1467;SDS011;727;48.892;9.544;2023-08-17T09:21:59;5.87;;;5.33;;
1467;SDS011;727;48.892;9.544;2023-08-17T09:24:33;6.97;;;5.23;;
1467;SDS011;727;48.892;9.544;2023-08-17T09:27:00;7.13;;;6.63;;
1467;SDS011;727;48.892;9.544;2023-08-17T09:29:27;7.40;;;6.70;;
1467;SDS011;727;48.892;9.544;2023-08-17T09:31:56;5.73;;;5.23;;
1467;SDS011;727;48.892;9.544;2023-08-17T09:34:23;5.47;;;4.97;;
1467;SDS011;727;48.892;9.544;2023-08-17T09:36:50;5.53;;;4.93;;
1467;SDS011;727;48.892;9.544;2023-08-17T09:39:18;7.03;;;6.40;;
1467;SDS011;727;48.892;9.544;2023-08-17T09:41:45;6.77;;;6.17;;
1467;SDS011;727;48.892;9.544;2023-08-17T09:44:12;5.90;;;5.40;;
1467;SDS011;727;48.892;9.544;2023-08-17T09:46:39;6.47;;;5.87;;
1467;SDS011;727;48.892;9.544;2023-08-17T09:49:08;8.63;;;5.90;;
1467;SDS011;727;48.892;9.544;2023-08-17T09:51:36;6.27;;;5.77;;
1467;SDS011;727;48.892;9.544;2023-08-17T09:54:02;6.70;;;6.17;;
1467;SDS011;727;48.892;9.544;2023-08-17T09:56:31;7.77;;;6.40;;
1467;SDS011;727;48.892;9.544;2023-08-17T09:58:58;6.33;;;5.80;;
1467;SDS011;727;48.892;9.544;2023-08-17T10:01:25;6.27;;;5.60;;
1467;SDS011;727;48.892;9.544;2023-08-17T10:03:53;7.20;;;6.60;;
1467;SDS011;727;48.892;9.544;2023-08-17T10:06:24;6.00;;;5.50;;
1467;SDS011;727;48.892;9.544;2023-08-17T10:08:52;7.40;;;6.70;;
1467;SDS011;727;48.892;9.544;2023-08-17T10:11:21;6.13;;;5.67;;
1467;SDS011;727;48.892;9.544;2023-08-17T10:13:52;6.33;;;5.83;;
1467;SDS011;727;48.892;9.544;2023-08-17T10:16:28;7.17;;;6.47;;
1467;SDS011;727;48.892;9.544;2023-08-17T10:19:01;7.20;;;6.60;;
1467;SDS011;727;48.892;9.544;2023-08-17T10:21:36;7.00;;;6.40;;
1467;SDS011;727;48.892;9.544;2023-08-17T10:24:06;6.93;;;5.93;;
1467;SDS011;727;48.892;9.544;2023-08-17T10:26:33;8.87;;;6.03;;
1467;SDS011;727;48.892;9.544;2023-08-17T10:29:02;5.63;;;5.13;;
1467;SDS011;727;48.892;9.544;2023-08-17T10:31:33;7.27;;;6.37;;
1467;SDS011;727;48.892;9.544;2023-08-17T10:34:00;7.83;;;6.17;;
1467;SDS011;727;48.892;9.544;2023-08-17T10:36:28;7.47;;;6.77;;
1467;SDS011;727;48.892;9.544;2023-08-17T10:41:49;6.20;;;5.70;;
1467;SDS011;727;48.892;9.544;2023-08-17T10:44:33;6.67;;;6.17;;
1467;SDS011;727;48.892;9.544;2023-08-17T10:47:18;6.90;;;6.30;;
1467;SDS011;727;48.892;9.544;2023-08-17T10:49:45;6.93;;;6.17;;
1467;SDS011;727;48.892;9.544;2023-08-17T10:52:14;7.30;;;6.60;;
1467;SDS011;727;48.892;9.544;2023-08-17T10:54:50;7.00;;;6.40;;
1467;SDS011;727;48.892;9.544;2023-08-17T10:57:30;8.30;;;6.10;;
1467;SDS011;727;48.892;9.544;2023-08-17T11:02:52;6.77;;;6.07;;
1467;SDS011;727;48.892;9.544;2023-08-17T11:05:36;5.53;;;5.10;;
1467;SDS011;727;48.892;9.544;2023-08-17T11:08:04;6.10;;;5.50;;
1467;SDS011;727;48.892;9.544;2023-08-17T11:10:31;6.40;;;5.90;;
1467;SDS011;727;48.892;9.544;2023-08-17T11:12:59;6.07;;;5.67;;
1467;SDS011;727;48.892;9.544;2023-08-17T11:15:35;6.80;;;6.30;;
1467;SDS011;727;48.892;9.544;2023-08-17T11:18:07;5.70;;;5.30;;
1467;SDS011;727;48.892;9.544;2023-08-17T11:20:36;8.63;;;6.87;;
1467;SDS011;727;48.892;9.544;2023-08-17T11:23:04;6.97;;;6.27;;
1467;SDS011;727;48.892;9.544;2023-08-17T11:25:32;5.60;;;5.20;;
1467;SDS011;727;48.892;9.544;2023-08-17T11:28:00;6.27;;;5.67;;
1467;SDS011;727;48.892;9.544;2023-08-17T11:30:28;6.53;;;5.50;;
1467;SDS011;727;48.892;9.544;2023-08-17T11:32:57;6.63;;;6.03;;
1467;SDS011;727;48.892;9.544;2023-08-17T11:35:23;5.93;;;5.47;;
1467;SDS011;727;48.892;9.544;2023-08-17T11:37:50;7.50;;;5.87;;
1467;SDS011;727;48.892;9.544;2023-08-17T11:40:17;6.40;;;5.73;;
1467;SDS011;727;48.892;9.544;2023-08-17T11:42:44;6.60;;;6.00;;
1467;SDS011;727;48.892;9.544;2023-08-17T11:45:12;6.50;;;5.90;;
1467;SDS011;727;48.892;9.544;2023-08-17T11:47:39;7.77;;;5.87;;
1467;SDS011;727;48.892;9.544;2023-08-17T11:50:10;5.97;;;5.57;;
1467;SDS011;727;48.892;9.544;2023-08-17T11:52:37;5.90;;;5.50;;
1467;SDS011;727;48.892;9.544;2023-08-17T11:55:05;5.03;;;4.70;;
1467;SDS011;727;48.892;9.544;2023-08-17T11:57:33;5.50;;;5.10;;
1467;SDS011;727;48.892;9.544;2023-08-17T12:00:00;5.57;;;5.13;;
1467;SDS011;727;48.892;9.544;2023-08-17T12:02:31;5.63;;;5.13;;
1467;SDS011;727;48.892;9.544;2023-08-17T12:05:02;6.77;;;6.27;;
1467;SDS011;727;48.892;9.544;2023-08-17T12:07:32;8.20;;;5.53;;
1467;SDS011;727;48.892;9.544;2023-08-17T12:09:59;6.27;;;5.87;;
1467;SDS011;727;48.892;9.544;2023-08-17T12:12:28;5.97;;;5.07;;
1467;SDS011;727;48.892;9.544;2023-08-17T12:14:54;9.00;;;6.77;;
1467;SDS011;727;48.892;9.544;2023-08-17T12:17:23;8.67;;;6.77;;
1467;SDS011;727;48.892;9.544;2023-08-17T12:19:53;6.87;;;6.37;;
1467;SDS011;727;48.892;9.544;2023-08-17T12:22:23;8.63;;;6.90;;
1467;SDS011;727;48.892;9.544;2023-08-17T12:24:52;9.83;;;6.47;;
1467;SDS011;727;48.892;9.544;2023-08-17T12:27:21;7.23;;;6.73;;
1467;SDS011;727;48.892;9.544;2023-08-17T12:29:49;8.30;;;7.60;;
1467;SDS011;727;48.892;9.544;2023-08-17T12:32:17;5.67;;;5.23;;
1467;SDS011;727;48.892;9.544;2023-08-17T12:34:45;6.73;;;6.13;;
1467;SDS011;727;48.892;9.544;2023-08-17T12:37:17;8.50;;;6.10;;
1467;SDS011;727;48.892;9.544;2023-08-17T12:39:44;7.20;;;6.50;;
1467;SDS011;727;48.892;9.544;2023-08-17T12:42:13;7.20;;;6.60;;
1467;SDS011;727;48.892;9.544;2023-08-17T12:44:40;7.23;;;6.67;;
1467;SDS011;727;48.892;9.544;2023-08-17T12:47:07;7.60;;;7.10;;
1467;SDS011;727;48.892;9.544;2023-08-17T12:49:35;7.73;;;7.17;;
1467;SDS011;727;48.892;9.544;2023-08-17T12:52:02;8.67;;;7.97;;
1467;SDS011;727;48.892;9.544;2023-08-17T12:54:29;7.73;;;7.03;;
1467;SDS011;727;48.892;9.544;2023-08-17T12:56:56;8.40;;;7.80;;
1467;SDS011;727;48.892;9.544;2023-08-17T12:59:24;10.40;;;8.70;;
1467;SDS011;727;48.892;9.544;2023-08-17T13:01:51;10.13;;;9.30;;
1467;SDS011;727;48.892;9.544;2023-08-17T13:04:18;9.70;;;8.77;;
1467;SDS011;727;48.892;9.544;2023-08-17T13:06:44;8.60;;;7.90;;
1467;SDS011;727;48.892;9.544;2023-08-17T13:09:12;13.47;;;9.87;;
1467;SDS011;727;48.892;9.544;2023-08-17T13:11:40;10.10;;;8.63;;
1467;SDS011;727;48.892;9.544;2023-08-17T13:14:09;9.60;;;8.70;;
1467;SDS011;727;48.892;9.544;2023-08-17T13:16:37;9.43;;;8.53;;
1467;SDS011;727;48.892;9.544;2023-08-17T13:19:03;15.20;;;9.43;;
1467;SDS011;727;48.892;9.544;2023-08-17T13:21:30;9.27;;;8.30;;
1467;SDS011;727;48.892;9.544;2023-08-17T13:23:57;8.30;;;7.60;;
1467;SDS011;727;48.892;9.544;2023-08-17T13:26:24;10.53;;;8.57;;
1467;SDS011;727;48.892;9.544;2023-08-17T13:28:51;8.60;;;7.80;;
1467;SDS011;727;48.892;9.544;2023-08-17T13:31:17;8.80;;;8.10;;
1467;SDS011;727;48.892;9.544;2023-08-17T13:33:45;12.20;;;8.93;;
1467;SDS011;727;48.892;9.544;2023-08-17T13:36:12;8.80;;;8.10;;
1467;SDS011;727;48.892;9.544;2023-08-17T13:38:39;9.40;;;8.60;;
1467;SDS011;727;48.892;9.544;2023-08-17T13:41:06;9.50;;;8.67;;
1467;SDS011;727;48.892;9.544;2023-08-17T13:43:33;10.73;;;9.27;;
1467;SDS011;727;48.892;9.544;2023-08-17T13:45:59;9.17;;;8.40;;
1467;SDS011;727;48.892;9.544;2023-08-17T13:48:26;11.23;;;9.63;;
1467;SDS011;727;48.892;9.544;2023-08-17T13:50:54;14.50;;;8.97;;
1467;SDS011;727;48.892;9.544;2023-08-17T13:53:21;9.97;;;9.10;;
1467;SDS011;727;48.892;9.544;2023-08-17T13:55:48;8.57;;;7.80;;
1467;SDS011;727;48.892;9.544;2023-08-17T13:58:14;10.07;;;9.17;;
1467;SDS011;727;48.892;9.544;2023-08-17T14:00:41;10.50;;;8.50;;
1467;SDS011;727;48.892;9.544;2023-08-17T14:03:08;9.10;;;7.93;;
1467;SDS011;727;48.892;9.544;2023-08-17T14:05:35;9.93;;;8.93;;
1467;SDS011;727;48.892;9.544;2023-08-17T14:08:03;9.83;;;8.60;;
1467;SDS011;727;48.892;9.544;2023-08-17T14:10:31;8.47;;;7.67;;
1467;SDS011;727;48.892;9.544;2023-08-17T14:13:01;9.57;;;8.77;;
1467;SDS011;727;48.892;9.544;2023-08-17T14:15:28;9.60;;;8.33;;
1467;SDS011;727;48.892;9.544;2023-08-17T14:17:54;11.13;;;8.60;;
1467;SDS011;727;48.892;9.544;2023-08-17T14:20:21;8.87;;;7.97;;
1467;SDS011;727;48.892;9.544;2023-08-17T14:22:48;9.57;;;8.67;;
1467;SDS011;727;48.892;9.544;2023-08-17T14:25:16;8.10;;;7.47;;
1467;SDS011;727;48.892;9.544;2023-08-17T14:27:43;9.83;;;8.83;;
1467;SDS011;727;48.892;9.544;2023-08-17T14:30:09;14.73;;;8.30;;
1467;SDS011;727;48.892;9.544;2023-08-17T14:32:37;11.40;;;6.90;;
1467;SDS011;727;48.892;9.544;2023-08-17T14:35:04;8.70;;;7.93;;
1467;SDS011;727;48.892;9.544;2023-08-17T14:37:31;9.23;;;8.40;;
1467;SDS011;727;48.892;9.544;2023-08-17T14:39:57;9.47;;;8.43;;
1467;SDS011;727;48.892;9.544;2023-08-17T14:42:26;10.13;;;9.13;;
1467;SDS011;727;48.892;9.544;2023-08-17T14:44:54;9.60;;;8.20;;
1467;SDS011;727;48.892;9.544;2023-08-17T14:47:21;9.77;;;8.70;;
1467;SDS011;727;48.892;9.544;2023-08-17T14:49:48;8.80;;;8.17;;
1467;SDS011;727;48.892;9.544;2023-08-17T14:52:14;9.57;;;8.87;;
1467;SDS011;727;48.892;9.544;2023-08-17T14:54:41;8.63;;;7.93;;
1467;SDS011;727;48.892;9.544;2023-08-17T14:57:08;9.00;;;8.30;;
1467;SDS011;727;48.892;9.544;2023-08-17T14:59:36;9.47;;;8.60;;
1467;SDS011;727;48.892;9.544;2023-08-17T15:02:03;9.70;;;8.80;;
1467;SDS011;727;48.892;9.544;2023-08-17T15:04:30;9.07;;;8.23;;
1467;SDS011;727;48.892;9.544;2023-08-17T15:06:57;8.43;;;7.73;;
1467;SDS011;727;48.892;9.544;2023-08-17T15:09:24;9.53;;;8.70;;
1467;SDS011;727;48.892;9.544;2023-08-17T15:11:51;12.03;;;8.63;;
1467;SDS011;727;48.892;9.544;2023-08-17T15:14:17;9.53;;;8.53;;
1467;SDS011;727;48.892;9.544;2023-08-17T15:16:45;9.87;;;8.90;;
1467;SDS011;727;48.892;9.544;2023-08-17T15:19:12;11.10;;;8.93;;
1467;SDS011;727;48.892;9.544;2023-08-17T15:21:39;11.10;;;10.10;;
1467;SDS011;727;48.892;9.544;2023-08-17T15:24:05;9.97;;;9.17;;
1467;SDS011;727;48.892;9.544;2023-08-17T15:26:32;9.67;;;8.73;;
1467;SDS011;727;48.892;9.544;2023-08-17T15:28:59;10.23;;;9.33;;
1467;SDS011;727;48.892;9.544;2023-08-17T15:31:26;9.57;;;8.87;;
1467;SDS011;727;48.892;9.544;2023-08-17T15:33:54;9.80;;;8.97;;
1467;SDS011;727;48.892;9.544;2023-08-17T15:36:21;10.27;;;9.33;;
1467;SDS011;727;48.892;9.544;2023-08-17T15:38:49;10.20;;;8.87;;
1467;SDS011;727;48.892;9.544;2023-08-17T15:41:15;9.63;;;8.90;;